createdAt,value
2022-08-20T00:01:04.318Z,5.83
2022-08-20T00:03:35.765Z,5.73
2022-08-20T00:06:17.163Z,6.27
2022-08-20T00:08:45.223Z,6.37
2022-08-20T00:11:17.210Z,6.10
2022-08-20T00:13:55.935Z,5.50
2022-08-20T00:16:25.663Z,6.13
2022-08-20T00:18:52.768Z,6.47
2022-08-20T00:21:20.841Z,5.90
2022-08-20T00:23:50.064Z,6.07
2022-08-20T00:26:18.205Z,6.30
2022-08-20T00:28:45.455Z,6.17
2022-08-20T00:31:14.997Z,6.87
2022-08-20T00:33:41.941Z,6.03
2022-08-20T00:36:10.921Z,6.27
2022-08-20T00:38:40.402Z,7.00
2022-08-20T00:41:09.364Z,6.77
2022-08-20T00:43:49.956Z,6.57
2022-08-20T00:46:28.144Z,6.80
2022-08-20T00:49:02.284Z,7.10
2022-08-20T00:51:43.832Z,6.77
2022-08-20T00:54:34.975Z,7.13
2022-08-20T00:57:08.530Z,6.67
2022-08-20T00:59:37.428Z,6.83
2022-08-20T01:02:15.351Z,7.43
2022-08-20T01:04:47.172Z,7.07
2022-08-20T01:07:14.053Z,7.70
2022-08-20T01:09:57.662Z,7.30
2022-08-20T01:12:27.237Z,7.27
2022-08-20T01:14:55.216Z,8.00
2022-08-20T01:17:25.981Z,7.03
2022-08-20T01:20:06.221Z,6.90
2022-08-20T01:23:19.863Z,8.00
2022-08-20T01:25:52.541Z,8.23
2022-08-20T01:28:25.220Z,7.37
2022-08-20T01:30:53.426Z,7.13
2022-08-20T01:33:22.894Z,6.30
2022-08-20T01:35:50.475Z,6.60
2022-08-20T01:38:18.119Z,6.60
2022-08-20T01:40:55.031Z,6.57
2022-08-20T01:43:22.134Z,5.57
2022-08-20T01:45:51.655Z,5.63
2022-08-20T01:48:21.060Z,5.57
2022-08-20T01:50:56.844Z,5.63
2022-08-20T01:53:37.499Z,5.53
2022-08-20T01:56:07.534Z,5.40
2022-08-20T01:58:36.370Z,6.47
2022-08-20T02:01:04.218Z,6.67
2022-08-20T02:03:36.545Z,6.53
2022-08-20T02:06:05.403Z,6.63
2022-08-20T02:08:33.570Z,7.73
2022-08-20T02:11:00.406Z,8.63
2022-08-20T02:13:27.333Z,7.83
2022-08-20T02:15:54.387Z,8.93
2022-08-20T02:18:22.523Z,8.57
2022-08-20T02:20:51.229Z,8.83
2022-08-20T02:23:18.835Z,8.40
2022-08-20T02:25:47.734Z,8.30
2022-08-20T02:28:17.603Z,9.13
2022-08-20T02:30:47.333Z,8.50
2022-08-20T02:33:16.329Z,8.40
2022-08-20T02:35:46.409Z,9.70
2022-08-20T02:38:15.609Z,8.70
2022-08-20T02:40:44.286Z,9.27
2022-08-20T02:43:12.246Z,8.70
2022-08-20T02:45:43.718Z,10.07
2022-08-20T02:48:15.481Z,9.73
2022-08-20T02:50:44.309Z,9.87
2022-08-20T02:53:11.826Z,10.00
2022-08-20T02:55:38.844Z,11.10
2022-08-20T02:58:05.723Z,11.30
2022-08-20T03:00:38.107Z,12.60
2022-08-20T03:03:09.088Z,11.37
2022-08-20T03:05:39.583Z,13.23
2022-08-20T03:08:09.217Z,12.00
2022-08-20T03:10:38.097Z,13.27
2022-08-20T03:13:06.491Z,14.40
2022-08-20T03:15:34.552Z,12.90
2022-08-20T03:18:01.592Z,13.83
2022-08-20T03:20:29.871Z,13.33
2022-08-20T03:22:57.020Z,14.03
2022-08-20T03:25:24.362Z,14.40
2022-08-20T03:27:54.190Z,13.83
2022-08-20T03:30:22.722Z,14.97
2022-08-20T03:32:49.635Z,14.83
2022-08-20T03:35:17.995Z,14.73
2022-08-20T03:37:47.969Z,14.90
2022-08-20T03:40:19.370Z,15.90
2022-08-20T03:42:46.305Z,15.77
2022-08-20T03:45:18.417Z,16.20
2022-08-20T03:47:47.601Z,15.27
2022-08-20T03:50:23.644Z,16.03
2022-08-20T03:52:54.389Z,16.13
2022-08-20T03:55:23.308Z,15.60
2022-08-20T03:57:56.449Z,15.63
2022-08-20T04:00:29.934Z,16.37
2022-08-20T04:02:57.233Z,16.30
2022-08-20T04:05:25.619Z,16.50
2022-08-20T04:08:03.009Z,15.70
2022-08-20T04:10:31.497Z,16.43
2022-08-20T04:12:58.258Z,15.67
2022-08-20T04:15:26.437Z,17.07
2022-08-20T04:17:54.276Z,16.63
2022-08-20T04:20:23.930Z,16.27
2022-08-20T04:22:58.725Z,17.47
2022-08-20T04:25:29.813Z,15.83
2022-08-20T04:28:00.606Z,16.77
2022-08-20T04:30:28.032Z,16.67
2022-08-20T04:32:56.151Z,16.70
2022-08-20T04:35:24.667Z,16.37
2022-08-20T04:38:03.025Z,17.40
2022-08-20T04:40:49.114Z,17.23
2022-08-20T04:43:15.930Z,16.53
2022-08-20T04:45:43.382Z,16.93
2022-08-20T04:48:14.793Z,16.50
2022-08-20T04:50:45.036Z,16.57
2022-08-20T04:53:13.730Z,15.87
2022-08-20T04:55:43.058Z,16.67
2022-08-20T04:58:30.301Z,15.97
2022-08-20T05:01:01.189Z,16.87
2022-08-20T05:03:28.818Z,17.40
2022-08-20T05:05:56.971Z,14.77
2022-08-20T05:08:25.629Z,15.60
2022-08-20T05:10:56.105Z,16.17
2022-08-20T05:13:41.330Z,15.47
2022-08-20T05:16:08.775Z,16.70
2022-08-20T05:18:35.759Z,17.80
2022-08-20T05:21:06.119Z,18.37
2022-08-20T05:23:35.098Z,19.33
2022-08-20T05:26:07.398Z,19.03
2022-08-20T05:28:36.864Z,19.90
2022-08-20T05:31:18.195Z,19.93
2022-08-20T05:33:45.149Z,19.17
2022-08-20T05:36:12.347Z,20.43
2022-08-20T05:38:43.462Z,20.47
2022-08-20T05:41:27.753Z,19.40
2022-08-20T05:44:02.666Z,19.57
2022-08-20T05:46:31.629Z,17.63
2022-08-20T05:48:59.945Z,19.40
2022-08-20T05:51:28.339Z,18.47
2022-08-20T05:53:57.461Z,18.07
2022-08-20T05:56:27.219Z,19.13
2022-08-20T05:58:54.526Z,19.60
2022-08-20T06:01:21.725Z,19.30
2022-08-20T06:04:07.655Z,18.90
2022-08-20T06:06:44.538Z,18.47
2022-08-20T06:09:12.796Z,20.13
2022-08-20T06:11:39.743Z,21.47
2022-08-20T06:14:06.593Z,20.73
2022-08-20T06:16:34.041Z,20.73
2022-08-20T06:19:02.699Z,20.47
2022-08-20T06:21:30.015Z,19.03
2022-08-20T06:23:59.158Z,17.73
2022-08-20T06:26:30.889Z,18.80
2022-08-20T06:28:59.698Z,18.23
2022-08-20T06:31:27.559Z,19.27
2022-08-20T06:33:54.619Z,18.00
2022-08-20T06:36:21.584Z,18.20
2022-08-20T06:38:48.722Z,18.40
2022-08-20T06:41:16.599Z,16.97
2022-08-20T06:43:43.381Z,16.60
2022-08-20T06:46:10.849Z,18.57
2022-08-20T06:48:38.282Z,17.60
2022-08-20T06:51:06.831Z,16.67
2022-08-20T06:53:33.955Z,15.83
2022-08-20T06:56:00.930Z,15.30
2022-08-20T06:58:37.175Z,15.67
2022-08-20T07:01:09.569Z,15.53
2022-08-20T07:03:42.353Z,16.70
2022-08-20T07:06:21.229Z,15.63
2022-08-20T07:08:48.113Z,16.23
2022-08-20T07:11:14.968Z,14.83
2022-08-20T07:13:42.244Z,15.90
2022-08-20T07:16:09.594Z,15.17
2022-08-20T07:18:36.419Z,14.30
2022-08-20T07:21:03.468Z,13.37
2022-08-20T07:23:31.754Z,13.17
2022-08-20T07:25:58.900Z,13.87
2022-08-20T07:28:31.889Z,13.43
2022-08-20T07:31:17.301Z,12.27
2022-08-20T07:33:47.271Z,11.57
2022-08-20T07:36:17.745Z,13.07
2022-08-20T07:38:48.837Z,11.93
2022-08-20T07:41:15.620Z,13.07
2022-08-20T07:43:45.688Z,12.00
2022-08-20T07:46:17.856Z,12.87
2022-08-20T07:48:50.410Z,11.67
2022-08-20T07:51:19.434Z,10.83
2022-08-20T07:53:47.616Z,12.03
2022-08-20T07:56:19.298Z,11.90
2022-08-20T07:58:50.634Z,11.57
2022-08-20T08:01:24.485Z,12.90
2022-08-20T08:03:51.904Z,11.93
2022-08-20T08:06:29.230Z,11.47
2022-08-20T08:09:03.564Z,10.83
2022-08-20T08:11:33.204Z,10.17
2022-08-20T08:14:00.300Z,9.70
2022-08-20T08:16:28.580Z,9.73
2022-08-20T08:18:56.859Z,9.57
2022-08-20T08:21:24.524Z,10.17
2022-08-20T08:23:51.370Z,9.00
2022-08-20T08:26:19.039Z,8.93
2022-08-20T08:28:46.698Z,9.90
2022-08-20T08:31:14.919Z,9.30
2022-08-20T08:33:42.358Z,8.40
2022-08-20T08:36:15.731Z,8.30
2022-08-20T08:38:44.751Z,9.53
2022-08-20T08:41:32.603Z,7.30
2022-08-20T08:44:09.463Z,7.27
2022-08-20T08:46:43.218Z,6.63
2022-08-20T08:49:21.699Z,7.00
2022-08-20T08:51:58.793Z,5.50
2022-08-20T08:54:31.304Z,5.40
2022-08-20T08:56:59.636Z,6.97
2022-08-20T08:59:46.135Z,5.33
2022-08-20T09:02:22.662Z,4.57
2022-08-20T09:04:51.561Z,4.57
2022-08-20T09:07:18.534Z,4.90
2022-08-20T09:09:46.904Z,4.00
2022-08-20T09:12:20.152Z,4.00
2022-08-20T09:14:48.310Z,3.97
2022-08-20T09:17:16.212Z,3.40
2022-08-20T09:19:43.239Z,3.93
2022-08-20T09:22:12.149Z,3.67
2022-08-20T09:24:39.175Z,3.00
2022-08-20T09:27:06.204Z,2.77
2022-08-20T09:29:33.230Z,2.10
2022-08-20T09:32:21.460Z,1.73
2022-08-20T09:34:52.627Z,2.60
2022-08-20T09:37:19.559Z,2.57
2022-08-20T09:39:47.159Z,1.97
2022-08-20T09:42:18.638Z,1.70
2022-08-20T09:44:45.551Z,1.70
2022-08-20T09:47:12.699Z,2.30
2022-08-20T09:49:40.567Z,2.20
2022-08-20T09:52:11.175Z,1.70
2022-08-20T09:54:46.295Z,1.90
2022-08-20T09:57:15.156Z,1.10
2022-08-20T09:59:42.631Z,2.20
2022-08-20T10:02:09.609Z,1.40
2022-08-20T10:04:36.408Z,1.77
2022-08-20T10:07:07.862Z,1.77
2022-08-20T10:09:36.337Z,2.00
2022-08-20T10:12:04.689Z,2.00
2022-08-20T10:14:31.853Z,1.83
2022-08-20T10:17:00.654Z,1.40
2022-08-20T10:19:28.115Z,2.27
2022-08-20T10:21:55.032Z,1.70
2022-08-20T10:24:22.445Z,1.70
2022-08-20T10:26:49.853Z,2.23
2022-08-20T10:29:17.128Z,1.37
2022-08-20T10:31:44.049Z,1.80
2022-08-20T10:34:10.783Z,1.70
2022-08-20T10:36:37.796Z,2.00
2022-08-20T10:39:04.819Z,1.80
2022-08-20T10:41:31.867Z,1.63
2022-08-20T10:43:58.704Z,3.00
2022-08-20T10:46:25.516Z,1.60
2022-08-20T10:48:52.398Z,1.90
2022-08-20T10:51:19.325Z,1.83
2022-08-20T10:53:46.088Z,1.40
2022-08-20T10:56:15.654Z,1.40
2022-08-20T10:58:42.698Z,2.10
2022-08-20T11:01:11.482Z,1.50
2022-08-20T11:03:38.359Z,1.83
2022-08-20T11:06:05.464Z,1.90
2022-08-20T11:08:33.726Z,1.80
2022-08-20T11:11:01.876Z,1.17
2022-08-20T11:13:28.793Z,1.90
2022-08-20T11:15:55.673Z,1.67
2022-08-20T11:18:22.459Z,1.70
2022-08-20T11:20:49.231Z,1.77
2022-08-20T11:23:16.070Z,2.23
2022-08-20T11:25:42.841Z,1.50
2022-08-20T11:28:09.685Z,1.50
2022-08-20T11:30:37.649Z,1.60
2022-08-20T11:33:04.999Z,1.67
2022-08-20T11:35:48.415Z,1.53
2022-08-20T11:38:17.009Z,1.70
2022-08-20T11:40:43.983Z,1.60
2022-08-20T11:43:16.426Z,1.73
2022-08-20T11:45:46.358Z,1.70
2022-08-20T11:48:13.440Z,1.83
2022-08-20T11:50:41.534Z,1.20
2022-08-20T11:53:08.689Z,1.93
2022-08-20T11:55:36.201Z,1.27
2022-08-20T11:58:03.776Z,1.90
2022-08-20T12:00:33.879Z,1.87
2022-08-20T12:03:02.075Z,2.25
2022-08-20T12:05:30.035Z,1.80
2022-08-20T12:07:57.858Z,1.60
2022-08-20T12:10:26.777Z,1.70
2022-08-20T12:12:54.243Z,1.40
2022-08-20T12:15:21.312Z,1.90
2022-08-20T12:17:48.652Z,1.90
2022-08-20T12:20:16.127Z,1.60
2022-08-20T12:22:44.526Z,1.90
2022-08-20T12:25:12.150Z,1.50
2022-08-20T12:27:39.717Z,1.60
2022-08-20T12:30:19.903Z,1.90
2022-08-20T12:32:46.924Z,1.37
2022-08-20T12:35:15.601Z,1.43
2022-08-20T12:37:43.777Z,1.30
2022-08-20T12:40:13.799Z,1.43
2022-08-20T12:42:40.783Z,1.60
2022-08-20T12:45:08.241Z,1.60
2022-08-20T12:47:40.916Z,2.28
2022-08-20T12:50:16.405Z,1.77
2022-08-20T12:52:43.322Z,1.58
2022-08-20T12:55:12.106Z,1.57
2022-08-20T12:57:51.234Z,1.58
2022-08-20T13:00:22.694Z,2.00
2022-08-20T13:02:52.682Z,1.83
2022-08-20T13:05:20.521Z,1.40
2022-08-20T13:07:48.049Z,1.83
2022-08-20T13:10:18.963Z,2.28
2022-08-20T13:12:45.748Z,1.63
2022-08-20T13:15:13.302Z,1.70
2022-08-20T13:17:40.168Z,1.60
2022-08-20T13:20:10.416Z,1.73
2022-08-20T13:22:37.521Z,1.70
2022-08-20T13:25:06.464Z,1.73
2022-08-20T13:27:33.389Z,1.60
2022-08-20T13:30:00.160Z,1.60
2022-08-20T13:32:27.252Z,1.80
2022-08-20T13:34:54.056Z,2.05
2022-08-20T13:37:26.760Z,1.58
2022-08-20T13:39:55.127Z,1.80
2022-08-20T13:42:22.440Z,1.85
2022-08-20T13:44:49.716Z,1.75
2022-08-20T13:47:25.765Z,1.85
2022-08-20T13:50:15.221Z,1.73
2022-08-20T13:52:42.710Z,1.38
2022-08-20T13:55:12.111Z,1.80
2022-08-20T13:57:40.573Z,1.90
2022-08-20T14:00:12.459Z,1.58
2022-08-20T14:02:40.167Z,2.03
2022-08-20T14:05:07.386Z,1.55
2022-08-20T14:07:34.129Z,2.03
2022-08-20T14:10:08.563Z,1.77
2022-08-20T14:12:35.387Z,1.70
2022-08-20T14:15:02.312Z,1.90
2022-08-20T14:17:43.332Z,1.65
2022-08-20T14:20:16.463Z,1.90
2022-08-20T14:22:44.795Z,1.70
2022-08-20T14:25:14.640Z,2.10
2022-08-20T14:27:42.549Z,1.67
2022-08-20T14:30:12.747Z,1.90
2022-08-20T14:32:40.115Z,2.07
2022-08-20T14:35:07.790Z,1.83
2022-08-20T14:37:38.188Z,1.90
2022-08-20T14:40:08.748Z,1.73
2022-08-20T14:42:36.106Z,1.97
2022-08-20T14:45:06.363Z,1.87
2022-08-20T14:47:42.486Z,2.20
2022-08-20T14:50:16.826Z,2.47
2022-08-20T14:52:44.197Z,1.60
2022-08-20T14:55:15.556Z,1.77
2022-08-20T14:57:43.087Z,1.83
2022-08-20T15:00:12.912Z,2.23
2022-08-20T15:02:40.370Z,1.83
2022-08-20T15:05:08.231Z,1.63
2022-08-20T15:07:39.609Z,1.73
2022-08-20T15:10:10.569Z,1.60
2022-08-20T15:12:37.626Z,2.13
2022-08-20T15:15:15.453Z,2.13
2022-08-20T15:18:03.509Z,2.20
2022-08-20T15:20:32.295Z,1.70
2022-08-20T15:22:59.953Z,1.70
2022-08-20T15:25:36.905Z,1.73
2022-08-20T15:28:08.258Z,1.57
2022-08-20T15:30:36.502Z,1.60
2022-08-20T15:33:03.573Z,2.07
2022-08-20T15:35:30.693Z,1.70
2022-08-20T15:37:59.102Z,1.70
2022-08-20T15:40:29.204Z,1.70
2022-08-20T15:43:00.815Z,1.60
2022-08-20T15:45:27.821Z,1.93
2022-08-20T15:48:13.581Z,1.47
2022-08-20T15:51:11.798Z,1.73
2022-08-20T15:54:05.240Z,1.40
2022-08-20T15:57:02.028Z,1.77
2022-08-20T15:59:43.742Z,1.87
2022-08-20T16:02:22.567Z,2.00
2022-08-20T16:05:03.710Z,2.17
2022-08-20T16:07:49.443Z,1.30
2022-08-20T16:10:25.052Z,1.33
2022-08-20T16:12:56.621Z,1.63
2022-08-20T16:15:47.574Z,1.90
2022-08-20T16:18:26.112Z,1.60
2022-08-20T16:20:55.359Z,1.50
2022-08-20T16:23:33.366Z,2.03
2022-08-20T16:26:36.632Z,1.57
2022-08-20T16:29:09.997Z,1.30
2022-08-20T16:31:45.386Z,1.90
2022-08-20T16:34:33.440Z,1.50
2022-08-20T16:37:19.897Z,1.40
2022-08-20T16:39:57.693Z,1.60
2022-08-20T16:42:28.327Z,1.67
2022-08-20T16:44:56.688Z,1.50
2022-08-20T16:47:36.143Z,1.17
2022-08-20T16:50:24.671Z,1.50
2022-08-20T16:52:52.239Z,1.10
2022-08-20T16:55:24.114Z,1.47
2022-08-20T16:57:52.928Z,1.63
2022-08-20T17:00:39.040Z,1.50
2022-08-20T17:03:38.556Z,1.93
2022-08-20T17:06:39.855Z,1.40
2022-08-20T17:09:14.454Z,1.20
2022-08-20T17:12:06.920Z,1.20
2022-08-20T17:14:48.460Z,1.10
2022-08-20T17:17:27.431Z,1.20
2022-08-20T17:19:59.887Z,1.30
2022-08-20T17:22:29.539Z,1.23
2022-08-20T17:24:57.579Z,1.30
2022-08-20T17:27:39.193Z,1.10
2022-08-20T17:30:36.829Z,1.73
2022-08-20T17:33:07.452Z,1.80
2022-08-20T17:35:43.023Z,1.73
2022-08-20T17:38:26.641Z,1.40
2022-08-20T17:41:00.132Z,1.40
2022-08-20T17:43:33.124Z,2.00
2022-08-20T17:46:06.534Z,1.60
2022-08-20T17:48:47.619Z,1.70
2022-08-20T17:51:26.731Z,1.57
2022-08-20T17:53:57.688Z,1.73
2022-08-20T17:56:31.843Z,1.57
2022-08-20T17:59:11.317Z,1.47
2022-08-20T18:01:38.597Z,1.50
2022-08-20T18:04:05.520Z,1.50
2022-08-20T18:06:52.973Z,1.57
2022-08-20T18:09:55.997Z,1.57
2022-08-20T18:12:35.026Z,1.40
2022-08-20T18:15:07.960Z,1.50
2022-08-20T18:17:52.515Z,2.10
2022-08-20T18:20:44.100Z,1.90
2022-08-20T18:23:12.651Z,1.60
2022-08-20T18:25:42.090Z,1.70
2022-08-20T18:28:27.650Z,1.80
2022-08-20T18:30:58.195Z,1.83
2022-08-20T18:33:31.572Z,1.80
2022-08-20T18:36:19.662Z,1.80
2022-08-20T18:38:57.422Z,1.50
2022-08-20T18:41:34.737Z,1.83
2022-08-20T18:44:13.612Z,1.53
2022-08-20T18:46:59.141Z,1.77
2022-08-20T18:49:39.244Z,1.30
2022-08-20T18:52:22.981Z,1.60
2022-08-20T18:54:52.715Z,1.40
2022-08-20T18:57:22.342Z,1.70
2022-08-20T19:00:20.730Z,2.10
2022-08-20T19:02:57.548Z,1.90
2022-08-20T19:06:02.469Z,2.10
2022-08-20T19:08:42.974Z,1.87
2022-08-20T19:11:12.503Z,1.53
2022-08-20T19:13:58.276Z,1.80
2022-08-20T19:16:46.132Z,1.37
2022-08-20T19:19:22.164Z,1.70
2022-08-20T19:21:49.613Z,1.97
2022-08-20T19:24:23.587Z,2.13
2022-08-20T19:27:05.938Z,1.93
2022-08-20T19:29:49.504Z,1.80
2022-08-20T19:32:34.359Z,1.63
2022-08-20T19:35:07.134Z,1.67
2022-08-20T19:37:50.859Z,1.23
2022-08-20T19:40:33.141Z,1.60
2022-08-20T19:43:12.288Z,1.60
2022-08-20T19:45:44.050Z,1.53
2022-08-20T19:48:16.914Z,1.50
2022-08-20T19:51:22.503Z,1.50
2022-08-20T19:53:49.757Z,1.20
2022-08-20T19:56:21.035Z,1.53
2022-08-20T19:59:09.067Z,1.40
2022-08-20T20:01:36.631Z,1.50
2022-08-20T20:04:14.471Z,1.43
2022-08-20T20:06:45.936Z,2.47
2022-08-20T20:09:19.486Z,4.37
2022-08-20T20:11:58.404Z,3.20
2022-08-20T20:14:34.339Z,1.93
2022-08-20T20:17:04.837Z,1.90
2022-08-20T20:19:31.935Z,1.80
2022-08-20T20:22:07.608Z,1.53
2022-08-20T20:24:50.729Z,1.73
2022-08-20T20:27:26.113Z,1.60
2022-08-20T20:30:00.437Z,1.90
2022-08-20T20:32:28.610Z,1.77
2022-08-20T20:35:00.186Z,1.73
2022-08-20T20:37:50.762Z,1.37
2022-08-20T20:40:45.966Z,1.60
2022-08-20T20:43:24.863Z,1.37
2022-08-20T20:46:00.780Z,1.53
2022-08-20T20:48:33.736Z,1.50
2022-08-20T20:51:11.736Z,1.83
2022-08-20T20:53:51.165Z,1.60
2022-08-20T20:56:29.399Z,1.53
2022-08-20T20:58:56.929Z,1.73
2022-08-20T21:01:41.402Z,2.20
2022-08-20T21:04:11.080Z,2.30
2022-08-20T21:06:38.766Z,2.23
2022-08-20T21:09:05.655Z,2.33
2022-08-20T21:11:32.436Z,2.00
2022-08-20T21:13:59.263Z,2.13
2022-08-20T21:16:26.034Z,2.00
2022-08-20T21:18:52.752Z,1.73
2022-08-20T21:21:19.553Z,2.33
2022-08-20T21:23:46.405Z,2.47
2022-08-20T21:26:13.330Z,2.07
2022-08-20T21:28:40.282Z,1.83
2022-08-20T21:31:07.221Z,1.90
2022-08-20T21:33:34.074Z,2.10
2022-08-20T21:36:00.860Z,1.70
2022-08-20T21:38:28.258Z,2.10
2022-08-20T21:40:55.112Z,2.07
2022-08-20T21:43:25.436Z,2.07
2022-08-20T21:45:52.526Z,2.17
2022-08-20T21:48:19.260Z,2.17
2022-08-20T21:50:46.038Z,2.20
2022-08-20T21:53:13.409Z,2.17
2022-08-20T21:55:40.857Z,2.13
2022-08-20T21:58:08.631Z,2.20
2022-08-20T22:00:52.756Z,2.53
2022-08-20T22:03:22.804Z,2.37
2022-08-20T22:05:50.570Z,2.33
2022-08-20T22:08:17.890Z,1.90
2022-08-20T22:10:45.456Z,2.70
2022-08-20T22:13:12.973Z,2.40
2022-08-20T22:15:40.508Z,2.30
2022-08-20T22:18:07.571Z,2.00
2022-08-20T22:20:34.472Z,1.97
2022-08-20T22:23:03.711Z,2.27
2022-08-20T22:25:30.763Z,2.30
2022-08-20T22:27:57.503Z,2.30
2022-08-20T22:30:24.884Z,2.07
2022-08-20T22:32:52.581Z,2.13
2022-08-20T22:35:19.852Z,2.20
2022-08-20T22:37:47.050Z,2.20
2022-08-20T22:40:13.991Z,2.20
2022-08-20T22:42:40.922Z,2.30
2022-08-20T22:45:11.602Z,1.97
2022-08-20T22:47:43.191Z,3.20
2022-08-20T22:50:12.188Z,2.53
2022-08-20T22:52:41.982Z,3.30
2022-08-20T22:55:09.692Z,2.37
2022-08-20T22:57:37.013Z,2.40
2022-08-20T23:00:11.836Z,2.43
2022-08-20T23:02:40.462Z,2.37
2022-08-20T23:05:11.959Z,2.90
2022-08-20T23:07:38.809Z,2.57
2022-08-20T23:10:05.969Z,3.10
2022-08-20T23:12:52.962Z,2.87
2022-08-20T23:15:19.856Z,2.60
2022-08-20T23:17:47.156Z,2.73
2022-08-20T23:20:17.307Z,2.30
2022-08-20T23:22:44.407Z,2.70
2022-08-20T23:25:12.821Z,2.93
2022-08-20T23:27:46.505Z,2.90
2022-08-20T23:30:14.861Z,2.57
2022-08-20T23:32:42.126Z,3.33
2022-08-20T23:35:09.309Z,2.93
2022-08-20T23:37:40.750Z,7.17
2022-08-20T23:40:09.261Z,2.90
2022-08-20T23:42:36.522Z,2.63
2022-08-20T23:45:05.256Z,2.73
2022-08-20T23:47:32.284Z,2.50
2022-08-20T23:49:59.167Z,2.10
2022-08-20T23:52:26.087Z,2.87
2022-08-20T23:54:52.984Z,2.50
2022-08-20T23:57:20.915Z,2.47
2022-08-20T23:59:48.299Z,3.03
